Time;durP1;ratioP1;P1;durP2;ratioP2;P2;SDS_P1;SDS_P2;PMS_P1;PMS_P2;Temp;Humidity;BMP_temperature;BMP_pressure;BME280_temperature;BME280_humidity;BME280_pressure;Samples;Min_cycle;Max_cycle;Signal;HPM_P1;HPM_P2
2023/06/22 00:01:46;;;;;;;20.55;15.13;;;;;;;22.29;100.00;-18625.88;4986345;28;20046;-79
2023/06/22 00:04:11;;;;;;;18.73;14.48;;;;;;;22.23;100.00;-18624.25;4986248;28;20039;-79
2023/06/22 00:06:37;;;;;;;19.10;14.68;;;;;;;22.23;100.00;-18624.25;4989480;28;20049;-78
2023/06/22 00:09:03;;;;;;;19.05;16.00;;;;;;;22.12;100.00;-18621.13;4987034;28;20509;-80
2023/06/22 00:11:28;;;;;;;18.85;14.88;;;;;;;22.12;100.00;-18621.25;4987426;28;20493;-79
2023/06/22 00:13:53;;;;;;;17.63;14.07;;;;;;;21.88;100.00;-18614.75;4987289;28;20042;-79
2023/06/22 00:16:19;;;;;;;20.15;16.10;;;;;;;21.81;100.00;-18613.13;4989386;28;20042;-78
2023/06/22 00:18:47;;;;;;;18.98;15.57;;;;;;;21.95;100.00;-18616.78;4985372;28;20440;-79
2023/06/22 00:21:13;;;;;;;19.80;15.80;;;;;;;21.63;100.00;-18608.34;4990838;28;20058;-79
2023/06/22 00:23:38;;;;;;;18.50;15.65;;;;;;;21.79;100.00;-18612.44;4989155;28;20038;-77
2023/06/22 00:26:03;;;;;;;18.33;14.88;;;;;;;21.76;100.00;-18611.63;4988221;28;20433;-79
2023/06/22 00:28:29;;;;;;;21.52;17.13;;;;;;;21.77;100.00;-18612.03;4988884;28;20106;-80
2023/06/22 00:30:54;;;;;;;30.48;23.73;;;;;;;21.62;100.00;-18607.94;4986194;28;20061;-78
2023/06/22 00:33:19;;;;;;;24.60;20.15;;;;;;;21.65;100.00;-18608.63;4989459;28;20043;-78
2023/06/22 00:35:45;;;;;;;20.00;16.80;;;;;;;21.52;100.00;-18605.22;4987981;28;20045;-78
2023/06/22 00:38:11;;;;;;;19.15;15.10;;;;;;;21.58;100.00;-18606.88;4983051;28;20521;-79
2023/06/22 00:40:37;;;;;;;20.20;15.25;;;;;;;21.51;100.00;-18604.97;4986740;28;20041;-78
2023/06/22 00:43:02;;;;;;;18.60;14.88;;;;;;;21.72;100.00;-18610.66;4989237;28;20042;-79
2023/06/22 00:45:28;;;;;;;17.88;15.07;;;;;;;21.92;100.00;-18615.81;4986426;28;20340;-77
2023/06/22 00:47:56;;;;;;;18.92;14.63;;;;;;;21.68;100.00;-18609.56;4986405;28;20517;-80
2023/06/22 00:50:24;;;;;;;17.40;15.35;;;;;;;21.69;100.00;-18609.72;4988449;28;20093;-79
2023/06/22 00:52:58;;;;;;;20.60;15.75;;;;;;;21.70;100.00;-18610.00;4987245;28;20453;-79
2023/06/22 00:55:25;;;;;;;16.55;14.75;;;;;;;21.68;100.00;-18609.56;4997665;28;20069;-79
2023/06/22 00:57:55;;;;;;;18.52;15.18;;;;;;;21.68;100.00;-18609.44;4993933;28;20058;-78
2023/06/22 01:00:24;;;;;;;19.55;15.73;;;;;;;21.44;100.00;-18603.19;4996986;28;20548;-77
2023/06/22 01:02:51;;;;;;;18.63;15.60;;;;;;;21.39;100.00;-18601.97;4990348;28;20038;-79
2023/06/22 01:05:18;;;;;;;20.85;15.98;;;;;;;21.36;100.00;-18601.16;4991193;28;20137;-77
2023/06/22 01:07:54;;;;;;;21.05;15.95;;;;;;;21.31;100.00;-18599.78;4989236;28;20050;-80
2023/06/22 01:10:29;;;;;;;19.58;15.02;;;;;;;21.42;100.00;-18602.50;4969602;28;20052;-79
2023/06/22 01:13:11;;;;;;;18.77;15.57;;;;;;;21.45;100.00;-18603.31;5007564;28;20042;-80
2023/06/22 01:15:49;;;;;;;19.10;15.93;;;;;;;21.32;100.00;-18600.06;4995354;28;20080;-79
2023/06/22 01:18:16;;;;;;;18.55;15.48;;;;;;;21.33;100.00;-18600.34;4986599;28;20046;-78
2023/06/22 01:20:42;;;;;;;18.10;14.60;;;;;;;21.37;100.00;-18601.28;4998523;28;20042;-79
2023/06/22 01:23:27;;;;;;;18.67;15.45;;;;;;;21.36;100.00;-18601.00;4992851;28;20141;-79
2023/06/22 01:26:27;;;;;;;19.05;16.10;;;;;;;21.33;100.00;-18600.34;4998272;28;20054;-80
2023/06/22 01:28:55;;;;;;;20.42;16.55;;;;;;;21.33;100.00;-18600.34;4996250;28;20130;-79
2023/06/22 01:31:24;;;;;;;20.35;17.27;;;;;;;21.39;100.00;-18601.84;5001867;28;20105;-80
2023/06/22 01:33:55;;;;;;;22.88;17.95;;;;;;;21.34;100.00;-18600.59;4995239;28;20422;-78
2023/06/22 01:36:22;;;;;;;21.10;18.17;;;;;;;21.26;100.00;-18598.44;4992186;28;20052;-79
2023/06/22 01:38:49;;;;;;;22.27;18.27;;;;;;;21.29;100.00;-18599.09;4998128;28;20045;-79
2023/06/22 01:41:16;;;;;;;21.48;18.98;;;;;;;21.33;100.00;-18600.34;5003196;28;20617;-78
2023/06/22 01:43:43;;;;;;;24.77;19.02;;;;;;;21.26;100.00;-18598.28;4995846;28;20046;-79
2023/06/22 01:46:09;;;;;;;24.60;19.95;;;;;;;21.31;100.00;-18599.78;4998632;28;20129;-79
2023/06/22 01:48:35;;;;;;;23.77;19.83;;;;;;;21.32;100.00;-18600.06;4998601;28;20161;-77
2023/06/22 01:51:00;;;;;;;22.08;19.45;;;;;;;21.29;100.00;-18599.25;4997303;28;20545;-79
2023/06/22 01:53:26;;;;;;;23.98;19.20;;;;;;;21.30;100.00;-18599.38;5000154;28;20046;-77
2023/06/22 01:55:51;;;;;;;24.90;19.73;;;;;;;21.27;100.00;-18598.69;4996262;28;20106;-79
2023/06/22 01:58:20;;;;;;;23.58;19.98;;;;;;;21.28;100.00;-18598.84;5001877;28;20048;-77
2023/06/22 02:00:58;;;;;;;23.98;20.45;;;;;;;21.28;100.00;-18598.84;4995783;28;20510;-77
2023/06/22 02:03:29;;;;;;;25.07;20.67;;;;;;;21.14;100.00;-18595.31;4991609;28;20070;-79
2023/06/22 02:06:02;;;;;;;25.55;21.75;;;;;;;21.07;100.00;-18593.41;4992672;28;20371;-77
2023/06/22 02:08:41;;;;;;;25.58;20.85;;;;;;;21.16;100.00;-18595.72;5001445;28;20061;-77
2023/06/22 02:11:09;;;;;;;24.08;21.00;;;;;;;21.11;100.00;-18594.34;4993685;28;20047;-79
2023/06/22 02:13:36;;;;;;;26.08;22.60;;;;;;;21.16;100.00;-18595.84;5000995;28;20042;-77
2023/06/22 02:16:01;;;;;;;25.70;20.90;;;;;;;21.23;100.00;-18597.47;4996382;28;20034;-80
2023/06/22 02:18:28;;;;;;;26.48;21.95;;;;;;;20.96;100.00;-18590.53;5002588;28;20125;-79
2023/06/22 02:20:53;;;;;;;26.92;21.90;;;;;;;20.95;100.00;-18590.28;4992095;28;20061;-78
2023/06/22 02:23:18;;;;;;;28.17;21.73;;;;;;;20.89;100.00;-18588.63;4996070;28;20057;-79
2023/06/22 02:25:44;;;;;;;27.77;22.05;;;;;;;21.00;100.00;-18591.50;4991604;28;20049;-80
2023/06/22 02:28:10;;;;;;;31.52;23.77;;;;;;;20.93;100.00;-18589.59;4993892;28;20137;-78
2023/06/22 02:30:35;;;;;;;27.65;22.02;;;;;;;20.85;100.00;-18587.56;5001991;28;20412;-79
2023/06/22 02:33:01;;;;;;;27.17;24.20;;;;;;;21.06;100.00;-18593.00;4995321;28;20640;-79
2023/06/22 02:35:31;;;;;;;28.23;22.25;;;;;;;21.06;100.00;-18593.00;4996330;28;20258;-78
2023/06/22 02:37:57;;;;;;;27.45;23.13;;;;;;;21.04;100.00;-18592.44;4985820;28;20468;-78
2023/06/22 02:40:22;;;;;;;28.65;22.98;;;;;;;21.02;100.00;-18591.91;4991620;28;20050;-78
2023/06/22 02:42:47;;;;;;;29.58;23.63;;;;;;;20.84;100.00;-18587.28;4987795;28;20068;-77
2023/06/22 02:45:13;;;;;;;28.73;22.80;;;;;;;20.82;100.00;-18586.72;4999585;28;20053;-77
2023/06/22 02:47:38;;;;;;;30.63;23.55;;;;;;;20.87;100.00;-18588.09;4988744;28;20042;-79
2023/06/22 02:50:04;;;;;;;28.40;24.15;;;;;;;20.80;100.00;-18586.19;4992191;28;20038;-77
2023/06/22 02:52:29;;;;;;;28.75;23.77;;;;;;;20.79;100.00;-18585.91;4996144;28;20065;-76
2023/06/22 02:54:55;;;;;;;29.73;23.88;;;;;;;20.69;100.00;-18583.19;4988615;28;20125;-77
2023/06/22 02:57:20;;;;;;;29.83;25.35;;;;;;;20.83;100.00;-18587.00;5000988;28;20042;-75
2023/06/22 02:59:45;;;;;;;27.13;23.88;;;;;;;20.86;100.00;-18587.81;4995500;28;21400;-78
2023/06/22 03:02:11;;;;;;;30.52;23.73;;;;;;;20.82;100.00;-18586.72;4992742;28;20040;-77
2023/06/22 03:04:36;;;;;;;30.73;24.98;;;;;;;20.77;100.00;-18585.38;4991820;28;20129;-77
2023/06/22 03:07:02;;;;;;;30.02;24.88;;;;;;;20.67;100.00;-18582.66;4993470;28;20070;-77
2023/06/22 03:09:28;;;;;;;32.47;25.13;;;;;;;20.63;100.00;-18581.56;4990393;28;20050;-78
2023/06/22 03:11:54;;;;;;;31.00;26.63;;;;;;;20.75;100.00;-18584.69;4994408;28;20501;-78
2023/06/22 03:14:20;;;;;;;31.75;26.10;;;;;;;20.67;100.00;-18582.78;4991589;28;20041;-77
2023/06/22 03:16:45;;;;;;;30.38;25.80;;;;;;;20.69;100.00;-18583.19;4993276;28;20682;-78
2023/06/22 03:19:11;;;;;;;30.15;26.25;;;;;;;20.58;100.00;-18580.22;4989421;28;20041;-77
2023/06/22 03:21:38;;;;;;;33.95;28.25;;;;;;;20.63;100.00;-18581.56;4994083;28;20038;-77
2023/06/22 03:24:04;;;;;;;33.70;26.40;;;;;;;20.60;100.00;-18580.75;4986338;28;20475;-76
2023/06/22 03:26:30;;;;;;;32.40;26.73;;;;;;;20.62;100.00;-18581.28;4990130;28;20235;-78
2023/06/22 03:28:55;;;;;;;33.85;27.33;;;;;;;20.65;100.00;-18582.09;4992694;28;20497;-77
2023/06/22 03:31:21;;;;;;;35.88;28.95;;;;;;;20.69;100.00;-18583.19;4998619;28;20092;-77
2023/06/22 03:33:48;;;;;;;35.90;27.50;;;;;;;20.90;100.00;-18588.78;4995313;28;20046;-77
2023/06/22 03:36:16;;;;;;;33.83;27.10;;;;;;;21.02;100.00;-18592.03;4999550;28;20120;-78
2023/06/22 03:38:41;;;;;;;34.05;28.15;;;;;;;20.78;100.00;-18585.66;4991792;28;20042;-76
2023/06/22 03:41:07;;;;;;;35.97;29.65;;;;;;;20.83;100.00;-18587.00;4997467;28;20099;-78
2023/06/22 03:43:32;;;;;;;36.58;27.35;;;;;;;20.62;100.00;-18581.28;4993737;28;20034;-77
2023/06/22 03:45:58;;;;;;;35.90;27.25;;;;;;;20.66;100.00;-18582.53;4996141;28;20074;-75
2023/06/22 03:48:23;;;;;;;34.72;27.70;;;;;;;20.45;100.00;-18576.78;5006814;28;20049;-77
2023/06/22 03:50:48;;;;;;;35.00;27.88;;;;;;;20.53;100.00;-18578.84;4993653;28;20050;-76
2023/06/22 03:53:14;;;;;;;33.40;26.90;;;;;;;20.38;100.00;-18575.03;4994924;28;20085;-76
2023/06/22 03:55:49;;;;;;;35.97;28.90;;;;;;;20.59;100.00;-18580.63;4996962;28;20038;-76
2023/06/22 03:58:14;;;;;;;35.80;29.65;;;;;;;20.57;100.00;-18580.06;5010502;28;20062;-78
2023/06/22 04:00:39;;;;;;;33.95;29.13;;;;;;;20.57;100.00;-18579.94;5037513;23;20393;-79
2023/06/22 04:03:07;;;;;;;34.45;27.65;;;;;;;20.72;100.00;-18584.00;4994215;28;20484;-79
2023/06/22 04:05:32;;;;;;;36.58;29.65;;;;;;;20.69;100.00;-18583.19;4991259;28;20076;-79
2023/06/22 04:07:58;;;;;;;34.33;28.98;;;;;;;20.70;100.00;-18583.47;4991915;28;20125;-79
2023/06/22 04:10:23;;;;;;;36.03;28.08;;;;;;;20.50;100.00;-18578.28;4988758;28;20509;-79
2023/06/22 04:12:48;;;;;;;35.88;28.08;;;;;;;20.47;100.00;-18577.47;4992847;28;20497;-79
2023/06/22 04:15:14;;;;;;;35.15;28.67;;;;;;;20.62;100.00;-18581.44;4990476;28;20058;-79
2023/06/22 04:17:39;;;;;;;38.45;28.25;;;;;;;20.61;100.00;-18581.03;4991033;28;20129;-79
2023/06/22 04:20:05;;;;;;;37.85;27.70;;;;;;;20.66;100.00;-18582.38;5006746;28;20475;-79
2023/06/22 04:22:31;;;;;;;31.38;26.73;;;;;;;20.75;100.00;-18584.69;4990962;28;20473;-79
2023/06/22 04:24:56;;;;;;;33.55;28.00;;;;;;;20.78;100.00;-18585.66;4990374;28;20066;-79
2023/06/22 04:27:23;;;;;;;32.20;26.63;;;;;;;20.92;100.00;-18589.47;4990741;28;20595;-79
2023/06/22 04:29:48;;;;;;;32.83;28.00;;;;;;;20.88;100.00;-18588.22;4988973;28;20812;-79
2023/06/22 04:32:15;;;;;;;31.15;26.15;;;;;;;20.98;100.00;-18590.81;4988128;28;20077;-79
2023/06/22 04:34:40;;;;;;;32.05;26.83;;;;;;;21.11;100.00;-18594.34;4991256;28;20046;-79
2023/06/22 04:37:05;;;;;;;34.80;25.88;;;;;;;21.09;100.00;-18593.94;4990141;28;20048;-79
2023/06/22 04:39:31;;;;;;;32.53;27.35;;;;;;;21.30;100.00;-18599.53;4986073;28;20046;-79
2023/06/22 04:42:00;;;;;;;34.05;26.50;;;;;;;21.42;100.00;-18602.50;4990752;28;20536;-79
2023/06/22 04:44:25;;;;;;;33.40;26.52;;;;;;;21.36;100.00;-18601.00;4990564;28;20104;-79
2023/06/22 04:47:00;;;;;;;29.10;24.30;;;;;;;21.39;100.00;-18601.84;4990863;28;20469;-79
2023/06/22 04:49:32;;;;;;;30.17;24.52;;;;;;;21.25;100.00;-18598.03;4987324;28;20039;-79
2023/06/22 04:51:59;;;;;;;32.25;25.33;;;;;;;21.11;100.00;-18594.34;4989990;28;20115;-79
2023/06/22 04:54:24;;;;;;;29.73;24.83;;;;;;;21.11;100.00;-18594.34;4990775;28;20106;-80
2023/06/22 04:56:56;;;;;;;32.65;25.33;;;;;;;21.11;100.00;-18594.34;4990415;28;20062;-79
2023/06/22 04:59:28;;;;;;;28.60;23.67;;;;;;;21.10;100.00;-18594.22;4992350;28;20038;-79
2023/06/22 05:01:58;;;;;;;31.55;26.17;;;;;;;21.08;100.00;-18593.66;4990282;28;20114;-79
2023/06/22 05:04:25;;;;;;;31.38;24.55;;;;;;;20.96;100.00;-18590.53;5006501;28;20404;-79
2023/06/22 05:06:51;;;;;;;31.42;25.75;;;;;;;21.15;100.00;-18595.44;5005132;28;20057;-79
2023/06/22 05:09:17;;;;;;;28.60;25.20;;;;;;;21.08;100.00;-18593.53;4989272;28;20050;-79
2023/06/22 05:11:44;;;;;;;31.70;24.23;;;;;;;21.22;100.00;-18597.22;4987695;28;20042;-79
2023/06/22 05:14:09;;;;;;;31.20;24.92;;;;;;;21.19;100.00;-18596.66;4981509;28;20046;-79
2023/06/22 05:16:36;;;;;;;31.13;23.70;;;;;;;21.35;100.00;-18600.75;4986223;28;20039;-79
2023/06/22 05:19:04;;;;;;;29.85;24.40;;;;;;;21.42;100.00;-18602.50;4985942;28;20051;-79
2023/06/22 05:21:31;;;;;;;30.70;25.55;;;;;;;21.39;100.00;-18601.97;4988884;28;20150;-79
2023/06/22 05:24:02;;;;;;;27.90;23.08;;;;;;;21.33;100.00;-18600.34;4988625;28;20042;-79
2023/06/22 05:26:28;;;;;;;34.22;24.20;;;;;;;21.42;100.00;-18602.66;4982870;28;20038;-79
2023/06/22 05:28:54;;;;;;;29.05;23.17;;;;;;;21.47;100.00;-18603.88;4990149;28;20042;-80
2023/06/22 05:31:19;;;;;;;27.90;22.85;;;;;;;21.50;100.00;-18604.81;4990557;28;20046;-79
2023/06/22 05:33:46;;;;;;;29.40;23.17;;;;;;;21.59;100.00;-18607.13;4989311;28;20042;-80
2023/06/22 05:36:12;;;;;;;26.20;21.52;;;;;;;21.66;100.00;-18609.03;4990595;28;20042;-80
2023/06/22 05:38:38;;;;;;;25.17;21.35;;;;;;;21.72;100.00;-18610.66;4989078;28;20045;-80
2023/06/22 05:41:04;;;;;;;26.52;21.88;;;;;;;21.83;100.00;-18613.53;4991796;28;20038;-79
2023/06/22 05:43:29;;;;;;;28.58;22.38;;;;;;;21.84;100.00;-18613.94;5000322;28;20158;-79
2023/06/22 05:45:55;;;;;;;26.35;22.67;;;;;;;22.09;100.00;-18620.44;4996316;28;20125;-80
2023/06/22 05:48:20;;;;;;;25.08;21.77;;;;;;;22.19;100.00;-18623.03;4999374;28;20201;-80
2023/06/22 05:50:46;;;;;;;26.00;20.52;;;;;;;22.26;100.00;-18624.94;4994528;28;20034;-80
2023/06/22 05:53:11;;;;;;;25.33;20.85;;;;;;;22.50;100.00;-18631.44;4994462;28;20046;-80
2023/06/22 05:55:36;;;;;;;25.98;20.90;;;;;;;22.57;100.00;-18633.09;4987043;28;20047;-80
2023/06/22 05:58:05;;;;;;;25.40;20.35;;;;;;;22.59;100.00;-18633.63;4996731;28;20133;-80
2023/06/22 06:00:31;;;;;;;25.20;19.60;;;;;;;22.45;100.00;-18630.09;4996041;28;20117;-80
2023/06/22 06:02:56;;;;;;;22.23;18.17;;;;;;;22.49;100.00;-18631.03;4993558;28;20058;-81
2023/06/22 06:05:23;;;;;;;23.45;18.35;;;;;;;22.54;100.00;-18632.41;4996454;28;20050;-81
2023/06/22 06:07:49;;;;;;;21.15;18.40;;;;;;;22.42;100.00;-18629.28;4994692;28;20064;-82
2023/06/22 06:10:14;;;;;;;21.85;18.90;;;;;;;22.52;100.00;-18631.84;4994637;28;20046;-81
2023/06/22 06:12:40;;;;;;;22.10;18.35;;;;;;;22.63;100.00;-18634.72;4991044;28;20042;-81
2023/06/22 06:15:06;;;;;;;23.90;18.58;;;;;;;22.57;100.00;-18633.22;4994213;28;20520;-81
2023/06/22 06:17:31;;;;;;;20.92;18.27;;;;;;;22.40;100.00;-18628.59;4997104;28;20042;-80
2023/06/22 06:19:58;;;;;;;24.02;19.05;;;;;;;22.56;100.00;-18632.94;4996113;28;20043;-79
2023/06/22 06:22:23;;;;;;;21.35;17.95;;;;;;;22.69;100.00;-18636.34;4992445;28;20069;-79
2023/06/22 06:24:49;;;;;;;27.10;18.05;;;;;;;22.68;100.00;-18636.06;4991831;28;20853;-80
2023/06/22 06:27:17;;;;;;;22.05;18.05;;;;;;;22.79;100.00;-18638.91;4996974;28;20101;-80
2023/06/22 06:29:45;;;;;;;28.17;18.50;;;;;;;22.90;100.00;-18641.91;4996039;28;20660;-79
2023/06/22 06:32:11;;;;;;;20.48;17.02;;;;;;;22.68;100.00;-18636.19;4993166;28;20070;-79
2023/06/22 06:34:36;;;;;;;21.52;17.00;;;;;;;22.77;100.00;-18638.38;4996789;28;20050;-78
2023/06/22 06:37:02;;;;;;;20.50;17.45;;;;;;;22.73;100.00;-18637.56;4993414;28;20058;-79
2023/06/22 06:39:27;;;;;;;21.55;17.05;;;;;;;22.87;100.00;-18641.22;4997219;28;20058;-79
2023/06/22 06:41:52;;;;;;;21.77;16.70;;;;;;;22.89;100.00;-18641.63;4994043;28;20049;-79
2023/06/22 06:44:18;;;;;;;21.90;18.27;;;;;;;22.92;100.00;-18642.44;5009439;28;20061;-79
2023/06/22 06:46:43;;;;;;;21.45;17.85;;;;;;;23.08;100.00;-18646.66;5019586;28;20457;-79
2023/06/22 06:49:08;;;;;;;19.88;17.05;;;;;;;23.17;100.00;-18649.25;5014141;28;20042;-79
2023/06/22 06:51:34;;;;;;;23.45;17.48;;;;;;;23.26;100.00;-18651.53;5020307;28;20073;-79
2023/06/22 06:53:59;;;;;;;19.13;16.67;;;;;;;23.40;100.00;-18655.22;5013658;28;20038;-79
2023/06/22 06:56:24;;;;;;;20.08;16.73;;;;;;;23.52;100.00;-18658.47;5008111;28;20404;-79
2023/06/22 06:58:50;;;;;;;21.50;17.75;;;;;;;23.55;100.00;-18659.13;4990991;28;20042;-80
2023/06/22 07:01:16;;;;;;;22.00;17.67;;;;;;;23.48;100.00;-18657.38;4994203;28;20055;-80
2023/06/22 07:03:41;;;;;;;21.58;17.15;;;;;;;23.51;100.00;-18658.19;4995327;28;20117;-80
2023/06/22 07:06:08;;;;;;;19.77;17.50;;;;;;;23.52;100.00;-18658.47;4994262;28;20049;-80
2023/06/22 07:08:35;;;;;;;22.40;16.38;;;;;;;23.64;100.00;-18661.72;4992359;28;20034;-79
2023/06/22 07:11:00;;;;;;;17.88;15.40;;;;;;;23.81;100.00;-18666.06;4993456;28;20042;-79
2023/06/22 07:13:26;;;;;;;20.95;16.60;;;;;;;23.65;100.00;-18662.00;4992969;28;20042;-80
2023/06/22 07:15:51;;;;;;;18.25;15.48;;;;;;;23.75;100.00;-18664.44;4999778;28;20043;-80
2023/06/22 07:18:16;;;;;;;18.85;16.63;;;;;;;23.85;100.00;-18667.13;4990422;28;20095;-80
2023/06/22 07:20:42;;;;;;;19.02;16.95;;;;;;;24.00;100.00;-18671.06;4989880;28;20046;-80
2023/06/22 07:23:07;;;;;;;18.48;16.23;;;;;;;24.06;100.00;-18672.84;4990204;28;21696;-80
2023/06/22 07:25:33;;;;;;;19.00;15.75;;;;;;;24.04;100.00;-18672.28;4990552;28;20042;-80
2023/06/22 07:28:01;;;;;;;20.05;16.27;;;;;;;24.06;100.00;-18672.84;4986726;28;20042;-80
2023/06/22 07:30:27;;;;;;;21.30;16.45;;;;;;;24.20;100.00;-18676.34;4988018;28;20112;-80
2023/06/22 07:32:53;;;;;;;19.52;16.00;;;;;;;24.28;100.00;-18678.53;4989096;28;20050;-80
2023/06/22 07:35:18;;;;;;;18.55;15.30;;;;;;;24.34;100.00;-18680.16;4988983;28;20506;-80
2023/06/22 07:37:43;;;;;;;18.83;15.80;;;;;;;24.48;100.00;-18683.94;4988941;28;20043;-80
2023/06/22 07:40:10;;;;;;;19.77;16.27;;;;;;;24.58;100.00;-18686.38;4992294;28;20034;-80
2023/06/22 07:42:35;;;;;;;21.13;16.42;;;;;;;24.56;100.00;-18685.97;4986465;28;20572;-80
2023/06/22 07:45:02;;;;;;;18.33;15.90;;;;;;;24.45;100.00;-18683.00;4985415;28;20034;-80
2023/06/22 07:47:28;;;;;;;21.83;16.58;;;;;;;24.70;100.00;-18689.78;4987898;28;20046;-79
2023/06/22 07:49:54;;;;;;;18.45;15.93;;;;;;;24.57;100.00;-18686.13;4992988;28;20072;-79
2023/06/22 07:52:20;;;;;;;19.75;16.08;;;;;;;24.48;100.00;-18683.94;4990768;28;20057;-79
2023/06/22 07:54:46;;;;;;;18.27;16.05;;;;;;;24.50;100.00;-18684.34;4982494;28;20102;-79
2023/06/22 07:57:11;;;;;;;17.27;15.32;;;;;;;24.73;100.00;-18690.44;4989484;28;20088;-79
2023/06/22 07:59:37;;;;;;;17.33;14.73;;;;;;;24.76;100.00;-18691.25;4987505;28;20044;-79
2023/06/22 08:02:03;;;;;;;21.70;15.93;;;;;;;24.72;100.00;-18690.19;4989011;28;20549;-79
2023/06/22 08:04:30;;;;;;;17.15;14.80;;;;;;;24.69;100.00;-18689.50;4992937;28;20049;-79
2023/06/22 08:06:56;;;;;;;21.27;16.25;;;;;;;24.92;100.00;-18695.59;4991046;28;20043;-79
2023/06/22 08:09:21;;;;;;;20.30;15.65;;;;;;;24.75;100.00;-18691.00;4986233;28;20057;-80
2023/06/22 08:11:47;;;;;;;20.85;17.52;;;;;;;24.77;100.00;-18691.66;4991730;28;20061;-80
2023/06/22 08:14:13;;;;;;;21.67;18.83;;;;;;;24.72;100.00;-18690.31;4988098;28;20045;-80
2023/06/22 08:16:38;;;;;;;21.30;16.88;;;;;;;24.63;100.00;-18687.75;4984909;28;20057;-79
2023/06/22 08:19:03;;;;;;;20.65;16.67;;;;;;;24.74;100.00;-18690.72;4990921;28;20458;-79
2023/06/22 08:21:29;;;;;;;19.45;16.45;;;;;;;24.76;100.00;-18691.25;4990580;28;20054;-80
2023/06/22 08:23:54;;;;;;;21.35;15.75;;;;;;;24.75;100.00;-18691.00;4996169;28;20081;-79
2023/06/22 08:26:20;;;;;;;21.42;17.08;;;;;;;24.90;100.00;-18695.06;4994546;28;20065;-80
2023/06/22 08:28:45;;;;;;;20.83;16.17;;;;;;;24.93;100.00;-18695.88;4990996;28;20109;-79
2023/06/22 08:31:12;;;;;;;19.38;15.85;;;;;;;24.83;100.00;-18693.16;5000407;28;20098;-80
2023/06/22 08:33:37;;;;;;;19.45;16.15;;;;;;;24.83;100.00;-18693.16;4987745;28;20050;-80
2023/06/22 08:36:05;;;;;;;20.80;15.88;;;;;;;25.07;100.00;-18699.38;4991600;28;20050;-79
2023/06/22 08:38:31;;;;;;;18.90;15.70;;;;;;;24.81;100.00;-18692.47;4991599;28;20043;-79
2023/06/22 08:40:57;;;;;;;19.48;15.57;;;;;;;24.61;100.00;-18687.19;4989833;28;20078;-79
2023/06/22 08:43:22;;;;;;;18.02;16.08;;;;;;;24.69;100.00;-18689.50;4990994;28;20102;-79
2023/06/22 08:45:47;;;;;;;19.05;15.20;;;;;;;24.92;100.00;-18695.47;4989691;28;20050;-80
2023/06/22 08:48:13;;;;;;;19.92;15.50;;;;;;;24.99;100.00;-18697.50;4991298;28;20736;-80
2023/06/22 08:50:40;;;;;;;18.08;14.77;;;;;;;25.16;100.00;-18701.81;4990644;28;20069;-79
2023/06/22 08:53:06;;;;;;;17.98;14.70;;;;;;;25.29;100.00;-18705.34;4987798;28;20050;-80
2023/06/22 08:55:31;;;;;;;19.25;15.65;;;;;;;25.49;100.00;-18710.63;4988799;28;20042;-80
2023/06/22 08:57:56;;;;;;;18.27;15.82;;;;;;;25.50;100.00;-18710.75;4991100;28;21330;-80
2023/06/22 09:00:22;;;;;;;22.35;16.80;;;;;;;25.75;100.00;-18717.53;4989177;28;20038;-80
2023/06/22 09:02:47;;;;;;;19.88;15.85;;;;;;;25.57;100.00;-18712.66;4990377;28;20057;-80
2023/06/22 09:05:13;;;;;;;18.60;16.10;;;;;;;25.85;100.00;-18720.22;4991461;28;20062;-80
2023/06/22 09:07:39;;;;;;;19.50;15.82;;;;;;;26.06;100.00;-18725.78;4990931;28;20109;-80
2023/06/22 09:10:05;;;;;;;18.83;15.75;;;;;;;26.07;100.00;-18726.06;4988983;28;20077;-80
2023/06/22 09:12:32;;;;;;;19.65;16.95;;;;;;;26.07;100.00;-18725.91;4990208;28;20036;-80
2023/06/22 09:15:02;;;;;;;18.23;15.82;;;;;;;26.09;100.00;-18726.44;4987406;28;21534;-80
2023/06/22 09:17:27;;;;;;;19.65;16.58;;;;;;;26.07;100.00;-18725.91;4987884;28;20043;-80
2023/06/22 09:19:52;;;;;;;20.30;16.17;;;;;;;26.20;100.00;-18729.44;4982454;28;20134;-79
2023/06/22 09:22:18;;;;;;;20.85;16.52;;;;;;;26.18;100.00;-18728.88;4986760;28;20047;-80
2023/06/22 09:24:43;;;;;;;22.08;16.70;;;;;;;26.26;100.00;-18731.03;4989780;28;20030;-80
2023/06/22 09:27:09;;;;;;;19.42;16.27;;;;;;;26.09;100.00;-18726.44;4988239;28;20053;-79
2023/06/22 09:29:34;;;;;;;26.02;16.58;;;;;;;26.27;100.00;-18731.31;4983945;28;20129;-80
2023/06/22 09:32:00;;;;;;;20.33;16.23;;;;;;;26.30;100.00;-18732.13;4988637;28;20105;-80
2023/06/22 09:34:26;;;;;;;18.90;15.90;;;;;;;26.21;100.00;-18729.69;4998275;28;20038;-80
2023/06/22 09:36:51;;;;;;;18.65;16.63;;;;;;;26.22;100.00;-18729.84;4992358;28;20104;-80
2023/06/22 09:39:18;;;;;;;19.58;16.35;;;;;;;26.15;100.00;-18728.06;4993740;28;20141;-80
2023/06/22 09:41:43;;;;;;;17.80;15.10;;;;;;;26.28;100.00;-18731.47;4996153;28;20460;-80
2023/06/22 09:44:09;;;;;;;19.88;16.33;;;;;;;26.47;100.00;-18736.44;4995106;28;20050;-80
2023/06/22 09:46:34;;;;;;;20.45;16.05;;;;;;;26.59;100.00;-18739.72;4997071;28;20116;-80
2023/06/22 09:48:59;;;;;;;17.40;14.77;;;;;;;26.42;100.00;-18735.09;4994117;28;20038;-80
2023/06/22 09:51:25;;;;;;;19.65;14.85;;;;;;;26.26;100.00;-18731.03;4991920;28;20484;-80
2023/06/22 09:53:52;;;;;;;21.88;15.93;;;;;;;26.10;100.00;-18726.84;5000222;28;20038;-79
2023/06/22 09:56:17;;;;;;;19.23;16.92;;;;;;;26.20;100.00;-18729.44;5016883;28;20044;-80
2023/06/22 09:58:44;;;;;;;19.80;15.13;;;;;;;26.19;100.00;-18729.16;5023788;28;20042;-80
2023/06/22 10:01:16;;;;;;;17.45;14.55;;;;;;;26.25;100.00;-18730.78;5021374;28;20137;-79
2023/06/22 10:03:42;;;;;;;19.40;15.00;;;;;;;26.16;100.00;-18728.34;5028370;28;20046;-80
2023/06/22 10:06:08;;;;;;;20.63;15.80;;;;;;;26.34;100.00;-18733.06;5023033;28;20053;-81
2023/06/22 10:08:33;;;;;;;18.95;15.65;;;;;;;26.37;100.00;-18733.88;5022521;28;20045;-80
2023/06/22 10:10:59;;;;;;;18.30;14.90;;;;;;;26.49;100.00;-18737.13;5026898;28;20049;-80
2023/06/22 10:13:24;;;;;;;18.88;16.05;;;;;;;26.65;100.00;-18741.31;5027136;28;20038;-80
2023/06/22 10:15:51;;;;;;;18.80;16.20;;;;;;;26.70;100.00;-18742.69;5020956;28;20069;-80
2023/06/22 10:18:17;;;;;;;19.08;14.52;;;;;;;26.69;100.00;-18742.28;5021801;28;20038;-79
2023/06/22 10:20:43;;;;;;;19.08;14.70;;;;;;;26.76;100.00;-18744.31;5016565;28;20034;-79
2023/06/22 10:23:09;;;;;;;19.65;14.90;;;;;;;26.63;100.00;-18740.66;5017854;28;20038;-80
2023/06/22 10:25:34;;;;;;;18.38;15.75;;;;;;;26.50;100.00;-18737.28;5020358;28;20038;-80
2023/06/22 10:27:59;;;;;;;17.27;14.57;;;;;;;26.43;100.00;-18735.38;5004537;28;20701;-79
2023/06/22 10:30:25;;;;;;;20.50;17.10;;;;;;;26.47;100.00;-18736.44;5011290;28;20504;-80
2023/06/22 10:32:50;;;;;;;18.42;16.02;;;;;;;26.41;100.00;-18734.97;5028819;28;20034;-80
2023/06/22 10:35:16;;;;;;;18.92;16.10;;;;;;;26.20;100.00;-18729.44;5009969;28;20661;-78
2023/06/22 10:37:45;;;;;;;18.23;14.80;;;;;;;26.26;100.00;-18730.91;5016213;28;20477;-79
2023/06/22 10:40:15;;;;;;;18.60;15.50;;;;;;;26.23;100.00;-18730.09;5010748;28;20057;-80
2023/06/22 10:42:41;;;;;;;17.90;14.88;;;;;;;26.37;100.00;-18733.75;5013748;28;20054;-80
2023/06/22 10:45:07;;;;;;;16.73;14.25;;;;;;;26.49;100.00;-18737.00;5015060;28;20056;-80
2023/06/22 10:47:33;;;;;;;18.48;14.88;;;;;;;26.49;100.00;-18737.00;5012742;28;20046;-81
2023/06/22 10:49:58;;;;;;;17.88;15.13;;;;;;;26.47;99.97;-18736.44;5013153;28;20177;-80
2023/06/22 10:52:24;;;;;;;16.77;13.73;;;;;;;26.41;100.00;-18734.84;5011209;28;20080;-78
2023/06/22 10:54:49;;;;;;;18.83;14.98;;;;;;;26.42;100.00;-18735.09;5013248;28;20037;-80
2023/06/22 10:57:15;;;;;;;19.60;13.38;;;;;;;26.39;100.00;-18734.44;5017751;28;20030;-79
2023/06/22 10:59:40;;;;;;;17.55;14.00;;;;;;;26.38;100.00;-18734.16;5015388;28;20038;-80